Time;durP1;ratioP1;P1;durP2;ratioP2;P2;SDS_P1;SDS_P2;PMS_P1;PMS_P2;Temp;Humidity;BMP_temperature;BMP_pressure;BME280_temperature;BME280_humidity;BME280_pressure;Samples;Min_cycle;Max_cycle;Signal;HPM_P1;HPM_P2
2023/08/04 00:00:23;;;;;;;3.43;2.53;;;16.70;99.90;;;;;;5092568;28;20195;-68
2023/08/04 00:02:48;;;;;;;19.07;2.63;;;16.70;99.90;;;;;;5074781;28;20193;-68
2023/08/04 00:05:14;;;;;;;3.57;2.40;;;16.70;99.90;;;;;;5092693;28;20617;-68
2023/08/04 00:07:42;;;;;;;4.63;2.83;;;16.70;99.90;;;;;;5092739;28;20184;-68
2023/08/04 00:10:08;;;;;;;4.13;2.30;;;16.70;99.90;;;;;;5092695;28;20638;-69
2023/08/04 00:12:37;;;;;;;2.50;2.30;;;16.70;99.90;;;;;;5092687;28;20443;-68
2023/08/04 00:15:02;;;;;;;2.80;1.77;;;16.60;99.90;;;;;;5085931;28;21190;-69
2023/08/04 00:17:28;;;;;;;4.43;1.90;;;16.60;99.90;;;;;;5090948;28;20451;-68
2023/08/04 00:19:54;;;;;;;4.57;2.40;;;16.60;99.90;;;;;;5103664;28;20287;-68
2023/08/04 00:22:20;;;;;;;3.60;1.83;;;16.60;99.90;;;;;;5112462;28;20195;-68
2023/08/04 00:24:45;;;;;;;3.00;2.63;;;16.60;99.90;;;;;;5112939;28;20760;-69
2023/08/04 00:27:11;;;;;;;2.33;2.10;;;16.60;99.90;;;;;;5112680;28;20172;-69
2023/08/04 00:29:36;;;;;;;3.40;2.17;;;16.60;99.90;;;;;;5094576;28;20185;-69
2023/08/04 00:32:02;;;;;;;4.57;1.90;;;16.60;99.90;;;;;;5079709;28;20177;-69
2023/08/04 00:34:28;;;;;;;3.40;2.50;;;16.60;99.90;;;;;;5079724;28;20174;-69
2023/08/04 00:36:53;;;;;;;7.77;2.37;;;16.60;99.90;;;;;;5073770;28;20165;-69
2023/08/04 00:39:19;;;;;;;2.80;2.20;;;16.60;99.90;;;;;;5074052;28;20166;-69
2023/08/04 00:41:44;;;;;;;3.90;2.57;;;16.50;99.90;;;;;;5092366;28;20186;-69
2023/08/04 00:44:10;;;;;;;4.70;2.57;;;16.50;99.90;;;;;;5092349;28;20166;-69
2023/08/04 00:46:36;;;;;;;3.73;2.20;;;16.50;99.90;;;;;;5090840;28;20227;-68
2023/08/04 00:49:03;;;;;;;3.07;1.83;;;16.50;99.90;;;;;;5089959;28;20169;-68
2023/08/04 00:51:31;;;;;;;6.90;3.00;;;16.50;99.90;;;;;;5101412;28;20450;-68
2023/08/04 00:53:57;;;;;;;4.33;2.10;;;16.50;99.90;;;;;;5095293;28;20406;-68
2023/08/04 00:56:22;;;;;;;3.03;1.90;;;16.50;99.90;;;;;;5112286;28;20934;-68
2023/08/04 00:58:48;;;;;;;3.83;2.17;;;16.40;99.90;;;;;;5112668;28;20184;-68
2023/08/04 01:01:13;;;;;;;2.70;2.20;;;16.40;99.90;;;;;;5109471;28;20193;-68
2023/08/04 01:03:43;;;;;;;2.97;2.00;;;16.40;99.90;;;;;;5090168;28;20275;-68
2023/08/04 01:06:39;;;;;;;2.63;2.20;;;16.40;99.90;;;;;;5091317;28;20177;-68
2023/08/04 01:09:22;;;;;;;5.70;2.20;;;16.40;99.90;;;;;;5092042;28;20419;-69
2023/08/04 01:11:56;;;;;;;1.70;1.60;;;16.30;99.90;;;;;;5092158;28;20430;-68
2023/08/04 01:14:23;;;;;;;3.67;2.80;;;16.30;99.90;;;;;;5091941;28;20396;-68
2023/08/04 01:16:49;;;;;;;2.60;2.33;;;16.20;99.90;;;;;;5091555;28;20410;-68
2023/08/04 01:19:14;;;;;;;4.30;2.07;;;16.20;99.90;;;;;;5081891;28;20423;-68
2023/08/04 01:21:43;;;;;;;4.13;2.50;;;16.10;99.90;;;;;;5092012;28;20251;-68
2023/08/04 01:24:09;;;;;;;2.70;1.90;;;16.10;99.90;;;;;;5112069;28;20652;-68
2023/08/04 01:26:38;;;;;;;12.57;2.50;;;16.00;99.90;;;;;;5093837;28;20497;-68
2023/08/04 01:29:06;;;;;;;4.70;2.23;;;15.90;99.90;;;;;;5112167;28;20810;-68
2023/08/04 01:31:33;;;;;;;6.03;2.13;;;15.90;99.90;;;;;;5112178;28;20787;-68
2023/08/04 01:33:58;;;;;;;5.27;2.30;;;15.90;99.90;;;;;;5092750;28;20419;-68
2023/08/04 01:36:24;;;;;;;2.33;1.70;;;15.80;99.90;;;;;;5086985;28;20423;-68
2023/08/04 01:38:49;;;;;;;6.60;2.20;;;15.90;99.90;;;;;;5110662;28;20557;-68
2023/08/04 01:41:15;;;;;;;2.80;2.13;;;15.80;99.90;;;;;;5111870;28;20239;-69
2023/08/04 01:43:40;;;;;;;2.60;2.20;;;15.90;99.90;;;;;;5112228;28;20177;-68
2023/08/04 01:46:06;;;;;;;9.97;6.30;;;15.90;99.90;;;;;;5093740;28;20256;-68
2023/08/04 01:48:32;;;;;;;8.77;6.67;;;15.90;99.90;;;;;;5093798;28;20220;-67
2023/08/04 01:50:57;;;;;;;4.37;3.33;;;15.90;99.90;;;;;;5102046;28;20189;-68
2023/08/04 01:53:23;;;;;;;3.97;2.53;;;15.90;99.90;;;;;;5068337;28;20181;-68
2023/08/04 01:55:48;;;;;;;4.73;2.47;;;15.90;99.90;;;;;;5091969;28;20180;-68
2023/08/04 01:58:14;;;;;;;11.07;2.73;;;16.00;99.90;;;;;;5095257;28;20275;-68
2023/08/04 02:00:39;;;;;;;3.40;2.23;;;16.00;99.90;;;;;;5095174;28;20200;-68
2023/08/04 02:03:05;;;;;;;3.10;2.80;;;16.00;99.90;;;;;;5095420;28;20201;-68
2023/08/04 02:05:30;;;;;;;3.53;2.43;;;16.00;99.90;;;;;;5095015;28;20508;-68
2023/08/04 02:07:56;;;;;;;6.90;4.03;;;16.00;99.90;;;;;;5088069;28;20178;-68
2023/08/04 02:10:21;;;;;;;2.90;2.67;;;16.00;99.90;;;;;;5065009;28;20563;-68
2023/08/04 02:12:47;;;;;;;4.03;2.30;;;16.00;99.90;;;;;;5094914;28;20173;-68
2023/08/04 02:15:13;;;;;;;5.17;2.53;;;15.90;99.90;;;;;;5094944;28;20926;-68
2023/08/04 02:17:39;;;;;;;3.83;2.23;;;15.90;99.90;;;;;;5076609;28;20443;-68
2023/08/04 02:20:05;;;;;;;3.07;2.83;;;15.90;99.90;;;;;;5076495;28;20685;-68
2023/08/04 02:22:30;;;;;;;3.10;2.73;;;15.90;99.90;;;;;;5094880;28;20691;-68
2023/08/04 02:24:56;;;;;;;2.93;2.60;;;15.90;99.90;;;;;;5084439;28;20514;-68
2023/08/04 02:27:21;;;;;;;2.73;2.47;;;15.90;99.90;;;;;;5092540;28;20256;-68
2023/08/04 02:29:47;;;;;;;6.57;3.07;;;15.80;99.90;;;;;;5079727;28;20272;-67
2023/08/04 02:32:13;;;;;;;6.03;2.90;;;15.80;99.90;;;;;;5115084;28;20165;-67
2023/08/04 02:34:38;;;;;;;4.17;3.53;;;15.80;99.90;;;;;;5114881;28;20172;-67
2023/08/04 02:37:04;;;;;;;6.70;3.80;;;15.90;99.90;;;;;;5114831;28;20168;-69
2023/08/04 02:39:34;;;;;;;7.77;3.73;;;15.90;99.90;;;;;;5114773;28;20177;-69
2023/08/04 02:41:59;;;;;;;9.00;3.63;;;15.90;99.90;;;;;;5093873;28;20188;-68
2023/08/04 02:44:25;;;;;;;6.50;3.53;;;15.90;99.90;;;;;;5098937;28;20403;-68
2023/08/04 02:46:50;;;;;;;10.60;3.77;;;15.90;99.90;;;;;;5094083;28;20161;-68
2023/08/04 02:49:16;;;;;;;8.37;4.10;;;15.90;99.90;;;;;;5094442;28;20172;-68
2023/08/04 02:51:42;;;;;;;14.63;4.93;;;15.90;99.90;;;;;;5094113;28;20165;-68
2023/08/04 02:54:10;;;;;;;8.23;3.67;;;15.80;99.90;;;;;;5094258;28;20926;-68
2023/08/04 02:56:35;;;;;;;8.40;3.47;;;15.80;99.90;;;;;;5092627;28;20223;-69
2023/08/04 02:59:01;;;;;;;8.63;3.63;;;15.80;99.90;;;;;;5087319;28;20839;-69
2023/08/04 03:01:27;;;;;;;14.67;7.03;;;15.80;99.90;;;;;;5091553;28;20226;-69
2023/08/04 03:03:52;;;;;;;11.53;5.70;;;15.80;99.90;;;;;;5114487;28;20196;-69
2023/08/04 03:06:17;;;;;;;10.47;5.00;;;15.80;99.90;;;;;;5095737;28;20168;-69
2023/08/04 03:08:43;;;;;;;8.60;4.43;;;15.80;99.90;;;;;;5113099;28;20176;-69
2023/08/04 03:11:10;;;;;;;5.57;3.13;;;15.80;99.90;;;;;;5114327;28;20594;-69
2023/08/04 03:13:36;;;;;;;7.63;3.50;;;15.70;99.90;;;;;;5111145;28;20157;-69
2023/08/04 03:16:02;;;;;;;11.23;3.97;;;15.70;99.90;;;;;;5060089;28;20411;-69
2023/08/04 03:18:28;;;;;;;5.10;2.53;;;15.70;99.90;;;;;;5093712;28;20396;-68
2023/08/04 03:20:53;;;;;;;4.30;3.03;;;15.70;99.90;;;;;;5093597;28;20773;-69
2023/08/04 03:23:21;;;;;;;4.23;2.97;;;15.70;99.90;;;;;;5078573;28;20251;-69
2023/08/04 03:25:47;;;;;;;3.63;3.30;;;15.70;99.90;;;;;;5113381;28;20157;-69
2023/08/04 03:28:12;;;;;;;5.63;4.00;;;15.70;99.90;;;;;;5114018;28;20429;-69
2023/08/04 03:30:38;;;;;;;5.40;3.70;;;15.70;99.90;;;;;;5109509;28;20226;-69
2023/08/04 03:33:03;;;;;;;6.23;3.13;;;15.80;99.90;;;;;;5089316;28;20181;-69
2023/08/04 03:35:30;;;;;;;4.53;3.00;;;15.80;99.90;;;;;;5091248;28;20181;-69
2023/08/04 03:37:55;;;;;;;5.27;3.70;;;15.80;99.90;;;;;;5113224;28;20161;-69
2023/08/04 03:40:21;;;;;;;4.57;3.33;;;15.80;99.90;;;;;;5113441;28;20496;-69
2023/08/04 03:42:47;;;;;;;9.20;3.90;;;15.80;99.90;;;;;;5095358;28;20796;-68
2023/08/04 03:45:13;;;;;;;8.17;3.90;;;15.80;99.90;;;;;;5113324;28;20195;-69
2023/08/04 03:47:38;;;;;;;5.57;4.20;;;15.80;99.90;;;;;;5102778;28;20445;-69
2023/08/04 03:50:06;;;;;;;4.90;3.17;;;15.90;99.90;;;;;;5097456;28;20177;-69
2023/08/04 03:52:32;;;;;;;7.57;4.17;;;15.90;99.90;;;;;;5112749;28;20541;-69
2023/08/04 03:54:58;;;;;;;6.83;3.70;;;15.90;99.90;;;;;;5096028;28;20411;-69
2023/08/04 03:57:23;;;;;;;6.57;4.07;;;15.90;99.90;;;;;;5092007;28;20407;-69
2023/08/04 03:59:51;;;;;;;6.83;4.13;;;15.90;99.90;;;;;;5092101;28;20784;-69
2023/08/04 04:02:16;;;;;;;7.43;4.20;;;15.90;99.90;;;;;;5092866;28;20204;-69
2023/08/04 04:04:42;;;;;;;7.20;4.07;;;16.00;99.90;;;;;;5083133;28;20914;-68
2023/08/04 04:07:07;;;;;;;4.40;3.57;;;16.00;99.90;;;;;;5086914;28;20539;-69
2023/08/04 04:09:33;;;;;;;7.13;3.53;;;16.00;99.90;;;;;;5092548;28;20162;-69
2023/08/04 04:11:58;;;;;;;10.13;4.27;;;16.00;99.90;;;;;;5072560;28;20200;-69
2023/08/04 04:14:24;;;;;;;6.23;3.77;;;16.00;99.90;;;;;;5074234;28;20173;-69
2023/08/04 04:16:49;;;;;;;5.43;3.33;;;16.10;99.90;;;;;;5112742;28;20234;-69
2023/08/04 04:19:15;;;;;;;15.17;8.27;;;16.10;99.90;;;;;;5093920;28;20164;-69
2023/08/04 04:21:40;;;;;;;17.10;9.87;;;16.10;99.90;;;;;;5097980;28;20212;-69
2023/08/04 04:24:06;;;;;;;12.77;5.17;;;16.10;99.90;;;;;;5072124;28;20189;-69
2023/08/04 04:26:31;;;;;;;6.20;4.73;;;16.10;99.90;;;;;;5071747;28;20171;-69
2023/08/04 04:28:57;;;;;;;10.57;4.23;;;16.10;99.90;;;;;;5059100;28;20173;-69
2023/08/04 04:31:22;;;;;;;8.23;4.33;;;16.20;99.90;;;;;;5092282;28;20197;-69
2023/08/04 04:33:48;;;;;;;11.07;5.93;;;16.20;99.90;;;;;;5095935;28;20168;-69
2023/08/04 04:36:13;;;;;;;5.07;3.37;;;16.20;99.90;;;;;;5112568;28;20169;-69
2023/08/04 04:38:39;;;;;;;5.63;4.20;;;16.30;99.90;;;;;;5076992;28;20590;-69
2023/08/04 04:41:04;;;;;;;7.13;4.40;;;16.30;99.90;;;;;;5105189;28;20227;-69
2023/08/04 04:43:30;;;;;;;11.53;3.70;;;16.30;99.90;;;;;;5111789;28;20200;-69
2023/08/04 04:45:56;;;;;;;6.43;3.50;;;16.40;99.90;;;;;;5091762;28;20255;-70
2023/08/04 04:48:23;;;;;;;10.27;3.63;;;16.40;99.90;;;;;;5092060;28;20166;-69
2023/08/04 04:50:50;;;;;;;10.27;3.33;;;16.40;99.90;;;;;;5091932;28;20427;-69
2023/08/04 04:53:16;;;;;;;4.70;3.70;;;16.50;99.90;;;;;;5092301;28;20411;-69
2023/08/04 04:55:42;;;;;;;9.27;3.70;;;16.60;99.90;;;;;;5076389;28;20943;-69
2023/08/04 04:58:08;;;;;;;7.40;4.27;;;16.60;99.90;;;;;;5105319;28;20177;-70
2023/08/04 05:00:37;;;;;;;12.40;7.63;;;16.60;99.90;;;;;;5095275;28;20427;-70
2023/08/04 05:03:08;;;;;;;14.90;8.43;;;16.70;99.90;;;;;;5091925;28;20297;-69
2023/08/04 05:05:34;;;;;;;7.60;4.50;;;16.80;99.90;;;;;;5089287;28;20431;-69
2023/08/04 05:08:00;;;;;;;10.73;5.60;;;16.80;99.90;;;;;;5112375;28;20430;-69
2023/08/04 05:10:26;;;;;;;7.20;4.70;;;16.90;99.90;;;;;;5096991;28;20780;-69
2023/08/04 05:12:52;;;;;;;9.67;4.33;;;17.00;99.90;;;;;;5083781;28;20236;-69
2023/08/04 05:15:17;;;;;;;5.93;3.97;;;17.00;99.90;;;;;;5105585;28;20418;-69
2023/08/04 05:17:44;;;;;;;9.93;4.23;;;17.10;99.90;;;;;;5109294;28;20505;-69
2023/08/04 05:20:10;;;;;;;4.17;3.50;;;17.20;99.90;;;;;;5090966;28;20193;-69
2023/08/04 05:22:36;;;;;;;7.70;4.20;;;17.20;99.90;;;;;;5091593;28;20463;-69
2023/08/04 05:25:02;;;;;;;5.60;3.77;;;17.20;99.90;;;;;;5101856;28;20515;-69
2023/08/04 05:27:27;;;;;;;4.43;4.03;;;17.30;99.90;;;;;;5112153;28;20693;-69
2023/08/04 05:29:53;;;;;;;10.43;4.80;;;17.30;99.90;;;;;;5093489;28;20439;-69
2023/08/04 05:32:18;;;;;;;5.17;4.10;;;17.40;99.90;;;;;;5115553;28;20525;-69
2023/08/04 05:34:44;;;;;;;5.43;3.23;;;17.40;99.90;;;;;;5108579;28;20189;-69
2023/08/04 05:37:09;;;;;;;4.67;3.90;;;17.50;99.90;;;;;;5077145;28;20174;-69
2023/08/04 05:39:35;;;;;;;10.13;5.40;;;17.60;99.90;;;;;;5073172;28;20201;-69
2023/08/04 05:42:01;;;;;;;4.23;3.77;;;17.60;99.90;;;;;;5099385;28;20189;-69
2023/08/04 05:44:28;;;;;;;13.90;4.97;;;17.70;99.90;;;;;;5110795;28;20812;-69
2023/08/04 05:46:53;;;;;;;18.60;4.60;;;17.70;99.90;;;;;;5095211;28;20240;-69
2023/08/04 05:49:19;;;;;;;5.77;3.87;;;17.70;99.90;;;;;;5095309;28;20427;-69
2023/08/04 05:51:46;;;;;;;5.40;3.40;;;17.70;99.90;;;;;;5077043;28;20270;-69
2023/08/04 05:54:11;;;;;;;9.10;4.27;;;17.70;99.90;;;;;;5093420;28;20173;-69
2023/08/04 05:56:37;;;;;;;4.30;2.83;;;17.70;99.90;;;;;;5075894;28;20439;-70
2023/08/04 05:59:02;;;;;;;7.07;3.60;;;17.80;99.90;;;;;;5088488;28;20173;-70
2023/08/04 06:01:28;;;;;;;8.87;3.77;;;17.80;99.90;;;;;;5076833;28;20193;-69
2023/08/04 06:03:54;;;;;;;3.60;3.30;;;17.90;99.90;;;;;;5076691;28;20532;-69
2023/08/04 06:06:20;;;;;;;4.57;3.50;;;18.00;99.90;;;;;;5093157;28;20174;-69
2023/08/04 06:08:46;;;;;;;5.10;3.40;;;18.00;99.90;;;;;;5094933;28;20419;-69
2023/08/04 06:11:12;;;;;;;5.60;3.60;;;18.10;99.90;;;;;;5089538;28;20971;-70
2023/08/04 06:13:38;;;;;;;4.23;3.60;;;18.20;99.90;;;;;;5094826;28;20173;-70
2023/08/04 06:16:03;;;;;;;3.73;3.03;;;18.30;99.90;;;;;;5111522;28;20411;-70
2023/08/04 06:18:29;;;;;;;8.07;2.90;;;18.50;99.90;;;;;;5115140;28;20551;-69
2023/08/04 06:20:54;;;;;;;4.23;2.97;;;18.70;99.90;;;;;;5114869;28;20196;-69
2023/08/04 06:23:20;;;;;;;7.47;3.73;;;18.90;99.90;;;;;;5115106;28;20195;-69
2023/08/04 06:25:45;;;;;;;7.23;2.70;;;19.00;99.90;;;;;;5095963;28;20169;-69
2023/08/04 06:28:11;;;;;;;6.20;3.40;;;19.20;99.90;;;;;;5071823;28;20181;-69
2023/08/04 06:30:37;;;;;;;6.60;2.97;;;19.30;99.90;;;;;;5106820;28;20196;-70
2023/08/04 06:33:02;;;;;;;5.50;2.87;;;19.40;99.90;;;;;;5096704;28;20676;-69
2023/08/04 06:35:28;;;;;;;7.70;4.40;;;19.50;99.90;;;;;;5114336;28;20173;-70
2023/08/04 06:37:53;;;;;;;7.60;3.70;;;19.40;99.90;;;;;;5096736;28;20196;-69
2023/08/04 06:40:19;;;;;;;9.40;3.37;;;19.50;99.90;;;;;;5114555;28;20232;-69
2023/08/04 06:42:44;;;;;;;4.03;2.77;;;19.50;99.90;;;;;;5096316;28;20238;-69
2023/08/04 06:45:10;;;;;;;3.70;2.77;;;19.50;99.90;;;;;;5076066;28;20175;-69
2023/08/04 06:47:36;;;;;;;3.90;3.03;;;19.50;99.90;;;;;;5106027;28;20222;-69
2023/08/04 06:50:03;;;;;;;4.23;3.13;;;19.60;99.90;;;;;;5096233;28;20280;-69
2023/08/04 06:52:30;;;;;;;7.30;3.70;;;19.70;99.90;;;;;;5076119;28;20192;-70
2023/08/04 06:54:56;;;;;;;4.90;3.53;;;19.70;99.90;;;;;;5099224;28;20422;-69
2023/08/04 06:57:21;;;;;;;8.10;4.30;;;19.80;99.90;;;;;;5114420;28;20499;-69
2023/08/04 06:59:47;;;;;;;5.00;3.20;;;19.80;99.90;;;;;;5099464;28;20197;-69
2023/08/04 07:02:12;;;;;;;6.07;3.70;;;19.90;99.90;;;;;;5089530;28;20231;-69
2023/08/04 07:04:38;;;;;;;4.40;3.60;;;19.90;99.90;;;;;;5114845;28;20218;-69
2023/08/04 07:07:04;;;;;;;6.93;4.40;;;20.00;99.90;;;;;;5113913;28;20195;-69
2023/08/04 07:09:29;;;;;;;11.13;4.17;;;20.00;99.90;;;;;;5113887;28;20169;-69
2023/08/04 07:11:55;;;;;;;5.37;3.90;;;20.10;99.90;;;;;;5087410;28;20627;-69
2023/08/04 07:14:21;;;;;;;4.50;3.67;;;20.30;99.90;;;;;;5073544;28;20225;-69
2023/08/04 07:16:46;;;;;;;8.73;3.80;;;20.40;99.90;;;;;;5086820;28;20189;-70
2023/08/04 07:19:13;;;;;;;5.93;3.97;;;20.40;99.90;;;;;;5100076;28;20239;-69
2023/08/04 07:21:38;;;;;;;7.53;4.50;;;20.60;99.90;;;;;;5111688;28;20745;-70
2023/08/04 07:24:04;;;;;;;4.10;3.70;;;20.70;99.90;;;;;;5113994;28;20497;-70
2023/08/04 07:26:31;;;;;;;4.50;3.70;;;20.80;99.90;;;;;;5094311;28;20172;-69
2023/08/04 07:28:57;;;;;;;7.10;4.33;;;20.90;99.90;;;;;;5113653;28;20819;-70
2023/08/04 07:31:23;;;;;;;8.53;5.17;;;21.20;99.90;;;;;;5106943;28;20448;-70
2023/08/04 07:33:49;;;;;;;7.80;4.57;;;21.30;99.90;;;;;;5091448;28;20412;-70
2023/08/04 07:36:15;;;;;;;4.17;3.43;;;21.40;99.90;;;;;;5089663;28;20442;-69
2023/08/04 07:38:40;;;;;;;3.57;3.27;;;21.40;99.90;;;;;;5102778;28;20236;-70
2023/08/04 07:41:06;;;;;;;4.07;3.60;;;21.50;99.90;;;;;;5100823;28;20666;-70
2023/08/04 07:43:31;;;;;;;2.97;2.77;;;21.50;99.90;;;;;;5074937;28;20204;-70
2023/08/04 07:45:57;;;;;;;5.60;3.37;;;21.60;99.90;;;;;;5092513;28;20262;-69
2023/08/04 07:48:22;;;;;;;6.03;3.50;;;21.70;99.90;;;;;;5067891;28;20202;-70
2023/08/04 07:50:50;;;;;;;5.30;3.20;;;22.00;99.90;;;;;;5100756;28;20192;-69
2023/08/04 07:53:15;;;;;;;5.63;3.20;;;22.40;99.90;;;;;;5096154;28;20264;-68
2023/08/04 07:55:41;;;;;;;4.23;2.67;;;22.80;99.90;;;;;;5074290;28;20447;-70
2023/08/04 07:58:07;;;;;;;4.70;3.00;;;23.10;99.90;;;;;;5074606;28;20174;-70
2023/08/04 08:00:33;;;;;;;8.50;2.60;;;23.40;99.90;;;;;;5099482;28;20271;-70
2023/08/04 08:02:59;;;;;;;3.80;2.73;;;23.60;99.90;;;;;;5094243;28;20553;-67
2023/08/04 08:05:24;;;;;;;5.73;2.70;;;23.80;99.90;;;;;;5093235;28;20205;-67
2023/08/04 08:07:50;;;;;;;3.23;2.37;;;24.10;99.90;;;;;;5063098;28;20186;-68
2023/08/04 08:10:17;;;;;;;3.93;2.87;;;24.30;99.90;;;;;;5094121;28;20197;-67
2023/08/04 08:12:43;;;;;;;6.17;3.20;;;24.80;99.90;;;;;;5092436;28;20442;-68
2023/08/04 08:15:09;;;;;;;6.17;3.30;;;25.40;99.90;;;;;;5092375;28;20495;-67
2023/08/04 08:17:34;;;;;;;4.20;3.30;;;25.90;99.90;;;;;;5092298;28;20495;-66
2023/08/04 08:20:00;;;;;;;4.63;2.93;;;26.20;99.90;;;;;;5092473;28;20458;-66
2023/08/04 08:22:25;;;;;;;6.77;3.60;;;26.70;99.90;;;;;;5086216;28;20197;-68
2023/08/04 08:24:55;;;;;;;6.30;3.27;;;27.10;99.90;;;;;;5074066;28;20181;-65
2023/08/04 08:27:20;;;;;;;5.60;2.40;;;27.30;99.90;;;;;;5113203;27;20172;-66
2023/08/04 08:29:46;;;;;;;7.07;3.60;;;27.80;99.90;;;;;;5112855;28;20433;-66
2023/08/04 08:32:11;;;;;;;2.40;2.13;;;28.10;99.90;;;;;;5112272;28;20535;-67
2023/08/04 08:34:38;;;;;;;3.60;3.10;;;28.20;99.90;;;;;;5113109;28;20175;-67
2023/08/04 08:37:08;;;;;;;7.47;2.83;;;28.20;99.90;;;;;;5112025;28;20191;-66
2023/08/04 08:39:33;;;;;;;5.20;2.77;;;28.10;99.90;;;;;;5073736;28;20439;-68
2023/08/04 08:41:59;;;;;;;8.83;2.43;;;28.00;99.90;;;;;;5095919;28;20454;-66
2023/08/04 08:44:25;;;;;;;3.33;2.90;;;27.80;99.90;;;;;;5092039;28;20532;-66
2023/08/04 08:46:51;;;;;;;5.57;3.00;;;27.60;99.90;;;;;;5073712;28;20639;-66
2023/08/04 08:49:20;;;;;;;7.57;2.90;;;27.40;99.90;;;;;;5091907;28;20673;-66
2023/08/04 08:51:51;;;;;;;7.00;3.30;;;27.30;99.90;;;;;;5074080;28;20418;-66
2023/08/04 08:54:18;;;;;;;4.13;2.93;;;27.00;99.20;;;;;;5091105;28;20434;-67
2023/08/04 08:56:43;;;;;;;4.87;2.60;;;26.80;99.90;;;;;;5090911;28;20416;-68
2023/08/04 08:59:09;;;;;;;4.03;3.23;;;26.80;99.90;;;;;;5092547;28;20411;-67
2023/08/04 09:01:35;;;;;;;3.80;2.80;;;26.80;99.90;;;;;;5097574;28;20197;-67
2023/08/04 09:04:00;;;;;;;3.23;2.70;;;26.90;99.90;;;;;;5092276;28;20162;-67
2023/08/04 09:06:26;;;;;;;8.00;3.17;;;27.10;99.90;;;;;;5075949;28;20234;-66
2023/08/04 09:08:54;;;;;;;3.20;2.37;;;27.40;99.90;;;;;;5096336;28;20532;-66
2023/08/04 09:11:19;;;;;;;3.53;2.50;;;27.50;99.90;;;;;;5092890;28;20189;-66
2023/08/04 09:13:46;;;;;;;5.00;2.80;;;27.40;98.60;;;;;;5106304;28;20770;-68
2023/08/04 09:16:12;;;;;;;2.70;2.50;;;27.10;97.60;;;;;;5108278;28;20173;-68
2023/08/04 09:18:39;;;;;;;6.30;2.87;;;26.70;99.90;;;;;;5096070;28;20408;-68
2023/08/04 09:21:07;;;;;;;6.00;2.20;;;26.30;99.90;;;;;;5096019;28;20565;-68
2023/08/04 09:23:36;;;;;;;3.63;2.57;;;26.10;99.90;;;;;;5088238;28;20458;-67
2023/08/04 09:26:01;;;;;;;2.27;2.00;;;26.70;99.90;;;;;;5087260;28;20400;-67
2023/08/04 09:28:27;;;;;;;4.13;2.50;;;27.40;99.90;;;;;;5095766;28;20422;-67
2023/08/04 09:31:07;;;;;;;4.13;2.17;;;28.10;99.90;;;;;;5095639;28;20655;-67
2023/08/04 09:33:36;;;;;;;4.40;2.73;;;29.00;99.90;;;;;;5095654;28;20932;-67
2023/08/04 09:36:10;;;;;;;2.60;2.00;;;29.80;96.00;;;;;;5076103;28;20449;-67
2023/08/04 09:38:37;;;;;;;4.90;2.03;;;30.00;91.40;;;;;;5095621;28;20771;-67
2023/08/04 09:41:08;;;;;;;3.30;2.37;;;29.50;85.30;;;;;;5097735;28;20848;-66
2023/08/04 09:43:34;;;;;;;2.23;2.03;;;28.80;83.50;;;;;;5097933;28;20465;-67
2023/08/04 09:46:06;;;;;;;3.43;2.17;;;28.10;84.40;;;;;;5115587;28;20398;-67
2023/08/04 09:48:32;;;;;;;3.20;2.00;;;27.40;88.10;;;;;;5101746;28;20427;-68
2023/08/04 09:51:11;;;;;;;3.37;2.47;;;26.80;92.50;;;;;;5107259;28;20574;-67
2023/08/04 09:53:44;;;;;;;4.40;2.33;;;26.20;95.70;;;;;;5115710;28;20251;-66
2023/08/04 09:56:14;;;;;;;6.70;2.50;;;25.60;99.90;;;;;;5115535;28;20399;-66
2023/08/04 09:58:41;;;;;;;4.80;2.10;;;25.10;99.90;;;;;;5080980;28;20450;-68
2023/08/04 10:01:07;;;;;;;3.30;2.90;;;24.70;99.90;;;;;;5097361;28;20521;-67
2023/08/04 10:03:37;;;;;;;3.10;2.37;;;24.60;99.90;;;;;;5097211;28;20550;-68
2023/08/04 10:06:06;;;;;;;3.77;2.47;;;24.60;99.90;;;;;;5087213;28;20415;-68
2023/08/04 10:08:33;;;;;;;2.73;2.53;;;24.80;99.90;;;;;;5078942;28;20453;-68
2023/08/04 10:10:59;;;;;;;2.67;2.13;;;26.20;99.90;;;;;;5081494;28;20928;-68
2023/08/04 10:13:27;;;;;;;2.00;1.80;;;29.10;99.90;;;;;;5102134;28;20410;-68
2023/08/04 10:15:56;;;;;;;11.50;3.00;;;32.40;92.50;;;;;;5115292;28;20187;-69
2023/08/04 10:18:23;;;;;;;2.60;2.40;;;35.20;72.90;;;;;;5106702;28;20432;-69
2023/08/04 10:20:51;;;;;;;2.80;2.60;;;36.90;56.90;;;;;;5086662;28;20962;-69
2023/08/04 10:23:17;;;;;;;2.40;2.13;;;37.20;50.80;;;;;;5101480;28;20958;-69
2023/08/04 10:26:01;;;;;;;2.20;2.00;;;36.60;48.80;;;;;;5111112;28;20439;-68
2023/08/04 10:28:30;;;;;;;3.20;2.90;;;35.60;48.30;;;;;;5061895;28;20701;-67
2023/08/04 10:31:11;;;;;;;3.87;2.90;;;34.40;47.70;;;;;;5094162;28;20430;-67
2023/08/04 10:33:36;;;;;;;3.10;2.60;;;33.30;48.70;;;;;;5076479;28;20438;-68
2023/08/04 10:36:10;;;;;;;3.67;2.83;;;32.60;50.50;;;;;;5091057;28;20470;-67
2023/08/04 10:38:46;;;;;;;3.87;2.40;;;32.30;52.00;;;;;;5087867;28;20169;-67
2023/08/04 10:41:12;;;;;;;3.17;2.50;;;33.30;52.30;;;;;;5098113;28;20917;-67
2023/08/04 10:43:39;;;;;;;2.50;2.30;;;34.00;49.30;;;;;;5115005;28;20475;-67
2023/08/04 10:46:10;;;;;;;3.27;2.97;;;34.60;49.20;;;;;;5096038;28;20221;-67
2023/08/04 10:48:39;;;;;;;2.53;2.33;;;35.10;48.10;;;;;;5114701;28;20413;-67
2023/08/04 10:51:06;;;;;;;4.03;2.73;;;35.50;46.40;;;;;;5095977;28;20435;-67
2023/08/04 10:53:31;;;;;;;2.23;1.90;;;35.60;46.00;;;;;;5074877;28;20428;-67
2023/08/04 10:55:58;;;;;;;4.97;2.10;;;35.20;44.90;;;;;;5095941;28;20409;-67
2023/08/04 10:58:25;;;;;;;3.90;2.30;;;34.60;44.80;;;;;;5094145;28;20174;-67
2023/08/04 11:00:55;;;;;;;3.50;2.80;;;34.00;46.00;;;;;;5094062;28;20435;-67
2023/08/04 11:03:22;;;;;;;4.40;2.57;;;33.40;47.10;;;;;;5093729;28;20972;-68
2023/08/04 11:05:52;;;;;;;2.70;2.50;;;32.90;47.70;;;;;;5075616;28;20510;-67
2023/08/04 11:08:21;;;;;;;2.97;2.50;;;32.30;48.50;;;;;;5113669;28;20438;-66
2023/08/04 11:10:48;;;;;;;3.00;2.77;;;31.80;49.30;;;;;;5092683;28;20462;-67
2023/08/04 11:13:17;;;;;;;3.23;2.93;;;31.50;50.50;;;;;;5112756;28;20415;-67
2023/08/04 11:15:43;;;;;;;3.00;2.17;;;31.10;51.10;;;;;;5095592;28;20498;-67
2023/08/04 11:18:13;;;;;;;3.30;2.70;;;30.90;51.60;;;;;;5095967;28;20495;-66
2023/08/04 11:20:40;;;;;;;3.10;2.77;;;30.60;52.40;;;;;;5093476;28;20489;-66
2023/08/04 11:23:09;;;;;;;3.47;3.23;;;30.40;53.70;;;;;;5075494;28;20684;-67
2023/08/04 11:25:35;;;;;;;3.30;2.97;;;30.20;54.30;;;;;;5091581;28;20403;-67
2023/08/04 11:28:01;;;;;;;2.57;2.40;;;30.30;54.40;;;;;;5092069;28;20531;-66
2023/08/04 11:30:27;;;;;;;3.53;3.23;;;30.60;54.30;;;;;;5078185;28;20810;-67
2023/08/04 11:32:53;;;;;;;2.90;2.70;;;31.80;55.30;;;;;;5098735;28;20416;-68
2023/08/04 11:35:19;;;;;;;5.73;2.37;;;34.20;50.80;;;;;;5075030;28;20177;-67
2023/08/04 11:37:45;;;;;;;2.20;2.10;;;36.00;48.10;;;;;;5093411;28;20173;-67
2023/08/04 11:40:21;;;;;;;4.93;2.37;;;36.40;47.00;;;;;;5075186;28;20839;-67
2023/08/04 11:42:47;;;;;;;3.53;2.23;;;36.70;46.20;;;;;;5089900;28;20211;-67
2023/08/04 11:45:13;;;;;;;1.83;1.73;;;37.20;43.00;;;;;;5096636;28;20447;-68
2023/08/04 11:47:39;;;;;;;2.70;2.50;;;36.70;40.80;;;;;;5113474;28;20410;-68
2023/08/04 11:50:06;;;;;;;2.43;2.23;;;35.90;41.30;;;;;;5104926;28;20448;-68
2023/08/04 11:52:37;;;;;;;2.70;1.83;;;35.10;41.10;;;;;;5104790;28;20165;-67
2023/08/04 11:55:04;;;;;;;3.23;2.37;;;34.20;41.60;;;;;;5055501;28;20773;-68
2023/08/04 11:57:29;;;;;;;4.83;1.80;;;33.30;42.60;;;;;;5113029;28;20498;-67
2023/08/04 11:59:55;;;;;;;2.17;2.00;;;32.60;43.00;;;;;;5094851;28;20469;-68
2023/08/04 12:02:21;;;;;;;1.80;1.70;;;32.10;44.00;;;;;;5113173;28;20192;-67
2023/08/04 12:05:07;;;;;;;2.60;2.43;;;31.60;44.00;;;;;;5102731;28;20205;-67
2023/08/04 12:07:32;;;;;;;3.17;1.73;;;31.00;44.20;;;;;;5101072;28;20446;-67
2023/08/04 12:09:58;;;;;;;2.03;1.93;;;30.60;46.10;;;;;;5095013;28;20427;-68
2023/08/04 12:12:41;;;;;;;3.40;2.47;;;30.50;46.00;;;;;;5095075;28;20177;-66
2023/08/04 12:15:07;;;;;;;2.20;2.00;;;30.50;47.70;;;;;;5094477;28;20407;-67
2023/08/04 12:17:43;;;;;;;3.23;2.13;;;31.10;48.60;;;;;;5094727;28;20497;-67
2023/08/04 12:20:11;;;;;;;2.63;2.43;;;34.00;49.00;;;;;;5073968;28;20899;-68
2023/08/04 12:22:42;;;;;;;1.97;1.87;;;36.90;45.50;;;;;;5079226;28;21126;-67
2023/08/04 12:25:08;;;;;;;2.00;1.77;;;40.10;41.20;;;;;;5094371;28;20403;-69
2023/08/04 12:27:34;;;;;;;2.63;2.00;;;42.60;37.10;;;;;;5113022;28;20420;-68
2023/08/04 12:30:00;;;;;;;2.43;1.80;;;44.80;33.80;;;;;;5094930;28;20513;-68
2023/08/04 12:32:25;;;;;;;2.17;1.90;;;47.00;32.90;;;;;;5107209;28;20493;-69
2023/08/04 12:34:51;;;;;;;2.93;1.87;;;48.80;28.60;;;;;;5094962;28;20197;-69
2023/08/04 12:37:16;;;;;;;2.10;2.00;;;49.90;27.20;;;;;;5112587;28;20169;-69
2023/08/04 12:39:44;;;;;;;1.90;1.80;;;49.90;25.60;;;;;;5112657;28;20661;-69
2023/08/04 12:42:10;;;;;;;2.73;2.20;;;48.60;25.90;;;;;;5103242;28;20262;-68